createdAt,value
2022-10-23T00:01:17.946Z,100.00
2022-10-23T00:03:45.659Z,100.00
2022-10-23T00:06:13.251Z,100.00
2022-10-23T00:08:40.948Z,100.00
2022-10-23T00:11:12.407Z,99.61
2022-10-23T00:13:39.960Z,99.84
2022-10-23T00:16:07.437Z,99.03
2022-10-23T00:18:34.443Z,99.22
2022-10-23T00:21:01.529Z,99.08
2022-10-23T00:23:28.182Z,98.91
2022-10-23T00:25:54.762Z,99.22
2022-10-23T00:28:21.401Z,98.98
2022-10-23T00:30:48.090Z,99.05
2022-10-23T00:33:14.642Z,99.02
2022-10-23T00:35:42.318Z,99.16
2022-10-23T00:38:10.020Z,99.18
2022-10-23T00:40:37.887Z,99.44
2022-10-23T00:43:06.675Z,98.92
2022-10-23T00:45:34.369Z,99.06
2022-10-23T00:48:02.325Z,99.73
2022-10-23T00:50:32.356Z,99.28
2022-10-23T00:53:03.345Z,99.21
2022-10-23T00:55:32.406Z,98.88
2022-10-23T00:57:59.629Z,98.75
2022-10-23T01:00:30.828Z,98.85
2022-10-23T01:02:57.776Z,98.83
2022-10-23T01:05:41.287Z,98.73
2022-10-23T01:08:17.454Z,98.57
2022-10-23T01:11:09.944Z,98.39
2022-10-23T01:13:57.085Z,98.36
2022-10-23T01:16:33.763Z,98.31
2022-10-23T01:19:35.763Z,98.33
2022-10-23T01:22:28.063Z,98.14
2022-10-23T01:25:00.763Z,98.51
2022-10-23T01:27:28.976Z,98.47
2022-10-23T01:30:08.863Z,98.17
2022-10-23T01:32:44.722Z,98.80
2022-10-23T01:35:13.917Z,98.63
2022-10-23T01:37:47.976Z,98.23
2022-10-23T01:40:28.438Z,98.03
2022-10-23T01:42:59.944Z,98.57
2022-10-23T01:45:45.910Z,98.57
2022-10-23T01:48:16.556Z,98.83
2022-10-23T01:50:44.228Z,98.57
2022-10-23T01:53:11.021Z,99.14
2022-10-23T01:58:13.505Z,98.88
2022-10-23T02:00:42.149Z,99.02
2022-10-23T02:03:09.493Z,98.40
2022-10-23T02:05:36.304Z,98.63
2022-10-23T02:08:03.381Z,99.00
2022-10-23T02:10:36.389Z,98.82
2022-10-23T02:13:13.062Z,99.02
2022-10-23T02:15:48.182Z,98.49
2022-10-23T02:18:29.159Z,99.17
2022-10-23T02:21:00.978Z,99.98
2022-10-23T02:23:40.436Z,100.00
2022-10-23T02:26:18.652Z,100.00
2022-10-23T02:28:52.156Z,100.00
2022-10-23T02:31:22.137Z,100.00
2022-10-23T02:33:49.069Z,100.00
2022-10-23T02:36:18.149Z,100.00
2022-10-23T02:38:45.901Z,100.00
2022-10-23T02:41:30.722Z,100.00
2022-10-23T02:44:07.651Z,100.00
2022-10-23T02:46:59.108Z,99.76
2022-10-23T02:49:41.032Z,100.00
2022-10-23T02:52:17.811Z,100.00
2022-10-23T02:55:07.431Z,100.00
2022-10-23T02:57:51.161Z,99.89
2022-10-23T03:00:20.827Z,99.87
2022-10-23T03:02:56.741Z,99.79
2022-10-23T03:05:28.443Z,99.70
2022-10-23T03:07:55.425Z,99.87
2022-10-23T03:10:22.450Z,99.91
2022-10-23T03:12:49.103Z,100.00
2022-10-23T03:15:17.086Z,100.00
2022-10-23T03:17:43.765Z,100.00
2022-10-23T03:20:11.076Z,100.00
2022-10-23T03:22:37.681Z,99.97
2022-10-23T03:25:04.566Z,100.00
2022-10-23T03:27:31.150Z,99.62
2022-10-23T03:29:57.745Z,99.21
2022-10-23T03:32:24.322Z,99.79
2022-10-23T03:34:50.851Z,100.00
2022-10-23T03:37:17.523Z,100.00
2022-10-23T03:39:44.130Z,100.00
2022-10-23T03:42:10.755Z,100.00
2022-10-23T03:44:37.330Z,100.00
2022-10-23T03:47:04.055Z,100.00
2022-10-23T03:49:30.922Z,100.00
2022-10-23T03:51:57.551Z,100.00
2022-10-23T03:54:26.294Z,100.00
2022-10-23T03:56:56.636Z,100.00
2022-10-23T03:59:24.264Z,100.00
2022-10-23T04:01:50.932Z,100.00
2022-10-23T04:04:22.554Z,100.00
2022-10-23T04:06:49.163Z,100.00
2022-10-23T04:09:15.950Z,100.00
2022-10-23T04:11:42.534Z,100.00
2022-10-23T04:14:13.371Z,100.00
2022-10-23T04:16:40.059Z,100.00
2022-10-23T04:19:06.608Z,100.00
2022-10-23T04:21:33.169Z,100.00
2022-10-23T04:23:59.761Z,100.00
2022-10-23T04:26:26.307Z,100.00
2022-10-23T04:28:52.846Z,100.00
2022-10-23T04:31:19.532Z,100.00
2022-10-23T04:33:46.056Z,100.00
2022-10-23T04:36:12.549Z,100.00
2022-10-23T04:38:39.106Z,99.90
2022-10-23T04:41:05.783Z,99.68
2022-10-23T04:43:32.484Z,99.46
2022-10-23T04:45:59.165Z,99.00
2022-10-23T04:48:28.451Z,98.71
2022-10-23T04:51:00.701Z,98.73
2022-10-23T04:53:28.372Z,98.57
2022-10-23T04:55:57.475Z,99.20
2022-10-23T04:58:25.619Z,99.42
2022-10-23T05:00:52.993Z,99.88
2022-10-23T05:03:19.982Z,100.00
2022-10-23T05:05:46.625Z,100.00
2022-10-23T05:08:15.689Z,100.00
2022-10-23T05:10:44.625Z,100.00
2022-10-23T05:13:11.222Z,100.00
2022-10-23T05:15:37.895Z,100.00
2022-10-23T05:18:17.084Z,100.00
2022-10-23T05:20:45.568Z,100.00
2022-10-23T05:23:16.551Z,100.00
2022-10-23T05:25:43.116Z,100.00
2022-10-23T05:28:09.717Z,100.00
2022-10-23T05:30:37.256Z,100.00
2022-10-23T05:33:04.348Z,100.00
2022-10-23T05:35:31.391Z,100.00
2022-10-23T05:38:00.391Z,100.00
2022-10-23T05:40:27.019Z,100.00
2022-10-23T05:42:54.022Z,100.00
2022-10-23T05:45:20.741Z,100.00
2022-10-23T05:47:49.164Z,100.00
2022-10-23T05:50:15.855Z,100.00
2022-10-23T05:52:42.636Z,100.00
2022-10-23T05:55:09.865Z,100.00
2022-10-23T05:57:37.578Z,100.00
2022-10-23T06:00:05.284Z,100.00
2022-10-23T06:02:33.088Z,100.00
2022-10-23T06:04:59.877Z,100.00
2022-10-23T06:07:31.150Z,100.00
2022-10-23T06:10:00.378Z,100.00
2022-10-23T06:12:27.126Z,100.00
2022-10-23T06:14:53.717Z,100.00
2022-10-23T06:17:20.252Z,100.00
2022-10-23T06:19:46.799Z,100.00
2022-10-23T06:22:13.487Z,100.00
2022-10-23T06:24:40.078Z,100.00
2022-10-23T06:27:06.794Z,100.00
2022-10-23T06:29:33.356Z,100.00
2022-10-23T06:32:00.066Z,100.00
2022-10-23T06:34:26.641Z,100.00
2022-10-23T06:36:53.196Z,100.00
2022-10-23T06:39:21.430Z,100.00
2022-10-23T06:41:47.962Z,100.00
2022-10-23T06:44:14.540Z,100.00
2022-10-23T06:46:41.284Z,100.00
2022-10-23T06:49:07.782Z,100.00
2022-10-23T06:51:34.391Z,100.00
2022-10-23T06:54:01.172Z,100.00
2022-10-23T06:56:29.333Z,100.00
2022-10-23T06:58:56.616Z,100.00
2022-10-23T07:01:23.548Z,100.00
2022-10-23T07:03:51.524Z,100.00
2022-10-23T07:06:18.165Z,100.00
2022-10-23T07:08:44.721Z,100.00
2022-10-23T07:11:12.187Z,100.00
2022-10-23T07:13:40.544Z,100.00
2022-10-23T07:16:16.212Z,100.00
2022-10-23T07:18:43.359Z,100.00
2022-10-23T07:21:10.444Z,100.00
2022-10-23T07:23:37.607Z,99.25
2022-10-23T07:26:16.111Z,97.88
2022-10-23T07:28:46.348Z,97.69
2022-10-23T07:31:13.864Z,97.05
2022-10-23T07:33:40.660Z,97.77
2022-10-23T07:36:08.809Z,97.43
2022-10-23T07:38:36.086Z,98.19
2022-10-23T07:41:02.805Z,98.15
2022-10-23T07:43:29.415Z,96.84
2022-10-23T07:45:56.505Z,96.69
2022-10-23T07:48:23.947Z,96.33
2022-10-23T07:50:51.060Z,96.17
2022-10-23T07:53:19.900Z,95.52
2022-10-23T07:56:00.661Z,95.23
2022-10-23T07:58:28.532Z,95.90
2022-10-23T08:01:01.605Z,95.24
2022-10-23T08:03:32.640Z,93.99
2022-10-23T08:05:59.865Z,93.04
2022-10-23T08:08:26.820Z,91.75
2022-10-23T08:10:55.275Z,90.17
2022-10-23T08:13:22.474Z,90.11
2022-10-23T08:15:50.936Z,89.16
2022-10-23T08:18:17.677Z,87.73
2022-10-23T08:20:46.622Z,88.08
2022-10-23T08:23:14.194Z,87.92
2022-10-23T08:25:40.934Z,87.19
2022-10-23T08:28:08.539Z,87.40
2022-10-23T08:30:36.185Z,86.50
2022-10-23T08:33:06.945Z,86.24
2022-10-23T08:35:38.269Z,86.91
2022-10-23T08:38:05.839Z,86.45
2022-10-23T08:40:33.150Z,85.90
2022-10-23T08:43:32.443Z,84.48
2022-10-23T08:46:07.301Z,84.81
2022-10-23T08:48:53.738Z,84.46
2022-10-23T08:51:38.051Z,83.96
2022-10-23T08:54:25.510Z,84.01
2022-10-23T08:57:03.616Z,85.14
2022-10-23T08:59:40.323Z,85.84
2022-10-23T09:02:31.812Z,85.79
2022-10-23T09:04:59.214Z,85.60
2022-10-23T09:07:47.116Z,84.69
2022-10-23T09:10:31.199Z,83.87
2022-10-23T09:13:13.553Z,83.12
2022-10-23T09:15:47.310Z,82.76
2022-10-23T09:18:17.687Z,82.09
2022-10-23T09:20:46.604Z,82.05
2022-10-23T09:23:19.302Z,81.16
2022-10-23T09:25:47.636Z,81.30
2022-10-23T09:28:36.474Z,82.15
2022-10-23T09:31:12.051Z,81.75
2022-10-23T09:33:39.554Z,82.56
2022-10-23T09:36:19.257Z,83.30
2022-10-23T09:38:45.714Z,83.13
2022-10-23T09:41:33.742Z,83.09
2022-10-23T09:44:18.816Z,83.14
2022-10-23T09:46:46.828Z,82.37
2022-10-23T09:49:26.692Z,80.94
2022-10-23T09:52:04.893Z,80.51
2022-10-23T09:54:34.981Z,79.90
2022-10-23T09:57:29.099Z,79.11
2022-10-23T09:59:59.984Z,78.25
2022-10-23T10:02:32.581Z,78.91
2022-10-23T10:04:59.369Z,78.30
2022-10-23T10:07:31.183Z,76.99
2022-10-23T10:10:00.198Z,78.07
2022-10-23T10:12:37.695Z,78.67
2022-10-23T10:15:28.288Z,77.92
2022-10-23T10:18:13.113Z,77.69
2022-10-23T10:20:55.612Z,78.15
2022-10-23T10:23:45.683Z,77.10
2022-10-23T10:26:22.824Z,76.52
2022-10-23T10:29:08.187Z,76.39
2022-10-23T10:31:37.668Z,76.91
2022-10-23T10:34:30.290Z,77.31
2022-10-23T10:37:06.122Z,76.52
2022-10-23T10:39:46.079Z,75.55
2022-10-23T10:42:44.978Z,75.26
2022-10-23T10:45:19.796Z,74.43
2022-10-23T10:48:09.618Z,74.56
2022-10-23T10:51:08.405Z,74.70
2022-10-23T10:54:08.622Z,74.17
2022-10-23T10:56:39.904Z,75.01
2022-10-23T10:59:16.542Z,74.97
2022-10-23T11:01:52.680Z,74.51
2022-10-23T11:04:28.202Z,74.82
2022-10-23T11:06:56.653Z,75.27
2022-10-23T11:09:29.448Z,74.73
2022-10-23T11:11:56.632Z,74.90
2022-10-23T11:14:26.029Z,75.34
2022-10-23T11:17:01.681Z,75.22
2022-10-23T11:19:42.192Z,75.12
2022-10-23T11:22:34.558Z,75.66
2022-10-23T11:25:50.017Z,75.88
2022-10-23T11:28:33.762Z,76.40
2022-10-23T11:31:17.398Z,76.63
2022-10-23T11:34:02.383Z,76.97
2022-10-23T11:36:31.572Z,76.48
2022-10-23T11:39:14.740Z,76.29
2022-10-23T11:41:49.904Z,76.69
2022-10-23T11:44:26.724Z,76.98
2022-10-23T11:47:28.706Z,76.61
2022-10-23T11:50:13.309Z,77.12
2022-10-23T11:53:14.616Z,76.56
2022-10-23T11:55:57.986Z,77.18
2022-10-23T11:58:32.042Z,76.75
2022-10-23T12:01:16.310Z,76.51
2022-10-23T12:03:52.696Z,77.01
2022-10-23T12:06:32.568Z,77.66
2022-10-23T12:09:05.227Z,77.00
2022-10-23T12:11:42.986Z,76.63
2022-10-23T12:14:38.535Z,76.40
2022-10-23T12:17:23.297Z,76.56
2022-10-23T12:19:52.978Z,76.04
2022-10-23T12:22:22.375Z,76.49
2022-10-23T12:25:13.050Z,76.68
2022-10-23T12:27:47.361Z,76.86
2022-10-23T12:30:33.863Z,76.43
2022-10-23T12:33:09.346Z,76.73
2022-10-23T12:35:48.959Z,76.75
2022-10-23T12:38:19.630Z,76.60
2022-10-23T12:40:51.754Z,77.14
2022-10-23T12:43:30.912Z,76.90
2022-10-23T12:46:05.215Z,77.05
2022-10-23T12:48:33.211Z,77.48
2022-10-23T12:51:00.449Z,78.08
2022-10-23T12:53:27.061Z,78.13
2022-10-23T12:58:32.971Z,77.40
2022-10-23T13:01:04.009Z,77.38
2022-10-23T13:03:32.692Z,77.27
2022-10-23T13:06:03.815Z,77.16
2022-10-23T13:08:39.840Z,76.91
2022-10-23T13:11:08.655Z,76.69
2022-10-23T13:13:35.556Z,76.88
2022-10-23T13:16:14.622Z,76.78
2022-10-23T13:18:42.407Z,76.61
2022-10-23T13:21:20.950Z,76.34
2022-10-23T13:23:48.206Z,76.52
2022-10-23T13:26:45.353Z,75.85
2022-10-23T13:29:22.823Z,76.32
2022-10-23T13:31:50.714Z,76.10
2022-10-23T13:34:26.914Z,75.66
2022-10-23T13:37:22.066Z,75.74
2022-10-23T13:40:03.554Z,76.42
2022-10-23T13:42:30.591Z,76.20
2022-10-23T13:44:57.403Z,76.79
2022-10-23T13:47:23.957Z,77.17
2022-10-23T13:49:50.538Z,76.77
2022-10-23T13:52:22.167Z,77.28
2022-10-23T13:54:49.899Z,77.28
2022-10-23T13:57:17.054Z,77.40
2022-10-23T13:59:43.641Z,77.77
2022-10-23T14:02:19.984Z,77.73
2022-10-23T14:04:47.281Z,78.22
2022-10-23T14:07:13.899Z,78.17
2022-10-23T14:09:40.466Z,77.98
2022-10-23T14:12:07.428Z,78.55
2022-10-23T14:14:34.525Z,78.48
2022-10-23T14:17:02.599Z,78.36
2022-10-23T14:19:29.281Z,78.38
2022-10-23T14:21:55.825Z,79.00
2022-10-23T14:24:22.483Z,78.86
2022-10-23T14:26:49.047Z,79.50
2022-10-23T14:29:23.038Z,78.53
2022-10-23T14:31:51.225Z,78.22
2022-10-23T14:34:17.894Z,78.20
2022-10-23T14:36:49.782Z,78.35
2022-10-23T14:39:17.769Z,78.64
2022-10-23T14:41:44.391Z,78.78
2022-10-23T14:44:11.073Z,78.86
2022-10-23T14:46:38.533Z,78.51
2022-10-23T14:49:05.530Z,78.74
2022-10-23T14:51:32.096Z,79.06
2022-10-23T14:54:03.891Z,79.07
2022-10-23T14:56:33.192Z,78.85
2022-10-23T14:59:03.133Z,79.14
2022-10-23T15:01:31.291Z,79.08
2022-10-23T15:03:58.003Z,78.76
2022-10-23T15:06:25.241Z,78.74
2022-10-23T15:08:55.222Z,78.94
2022-10-23T15:11:23.018Z,78.94
2022-10-23T15:13:49.546Z,79.24
2022-10-23T15:16:16.722Z,79.33
2022-10-23T15:18:43.344Z,79.04
2022-10-23T15:21:10.253Z,79.28
2022-10-23T15:23:39.300Z,79.55
2022-10-23T15:26:08.846Z,80.28
2022-10-23T15:28:35.380Z,80.29
2022-10-23T15:31:02.124Z,80.37
2022-10-23T15:33:28.710Z,80.62
2022-10-23T15:35:55.565Z,80.13
2022-10-23T15:38:23.053Z,80.82
2022-10-23T15:40:50.080Z,80.34
2022-10-23T15:43:17.331Z,80.37
2022-10-23T15:45:43.998Z,80.53
2022-10-23T15:48:10.539Z,81.18
2022-10-23T15:50:37.194Z,80.38
2022-10-23T15:53:04.273Z,80.30
2022-10-23T15:55:30.934Z,80.78
2022-10-23T15:58:01.958Z,81.08
2022-10-23T16:00:28.621Z,81.03
2022-10-23T16:02:55.179Z,81.42
2022-10-23T16:05:21.870Z,81.86
2022-10-23T16:07:48.431Z,81.81
2022-10-23T16:10:15.389Z,81.55
2022-10-23T16:12:42.104Z,81.71
2022-10-23T16:15:09.499Z,82.29
2022-10-23T16:17:36.072Z,82.45
2022-10-23T16:20:02.758Z,82.50
2022-10-23T16:22:29.464Z,82.94
2022-10-23T16:25:04.393Z,82.60
2022-10-23T16:27:31.043Z,82.45
2022-10-23T16:29:57.613Z,82.65
2022-10-23T16:32:24.245Z,82.45
2022-10-23T16:34:50.811Z,82.61
2022-10-23T16:37:17.369Z,82.02
2022-10-23T16:39:43.948Z,82.04
2022-10-23T16:42:11.344Z,81.22
2022-10-23T16:44:38.318Z,80.73
2022-10-23T16:47:04.943Z,81.07
2022-10-23T16:49:32.257Z,80.63
2022-10-23T16:51:58.784Z,80.61
2022-10-23T16:54:25.751Z,80.97
2022-10-23T16:56:52.374Z,81.77
2022-10-23T16:59:19.020Z,81.84
2022-10-23T17:01:45.802Z,81.26
2022-10-23T17:04:12.512Z,81.16
2022-10-23T17:06:39.059Z,81.85
2022-10-23T17:09:06.179Z,80.66
2022-10-23T17:11:36.075Z,80.45
2022-10-23T17:14:11.255Z,80.65
2022-10-23T17:16:49.816Z,80.78
2022-10-23T17:19:44.510Z,80.99
2022-10-23T17:22:10.584Z,80.67
2022-10-23T17:24:41.971Z,80.51
2022-10-23T17:27:09.191Z,81.05
2022-10-23T17:29:36.054Z,80.79
2022-10-23T17:32:02.822Z,81.00
2022-10-23T17:34:29.611Z,81.07
2022-10-23T17:36:56.566Z,81.31
2022-10-23T17:39:25.940Z,81.42
2022-10-23T17:41:52.916Z,82.12
2022-10-23T17:44:19.894Z,82.34
2022-10-23T17:46:46.497Z,81.71
2022-10-23T17:49:13.088Z,81.53
2022-10-23T17:51:39.921Z,81.72
2022-10-23T17:54:09.854Z,81.67
2022-10-23T17:56:38.366Z,81.96
2022-10-23T17:59:13.089Z,82.25
2022-10-23T18:01:39.620Z,83.26
2022-10-23T18:04:08.044Z,83.28
2022-10-23T18:06:42.976Z,83.54
2022-10-23T18:09:09.635Z,83.72
2022-10-23T18:11:43.865Z,83.90
2022-10-23T18:14:15.016Z,84.02
2022-10-23T18:16:41.858Z,84.17
2022-10-23T18:19:08.771Z,84.36
2022-10-23T18:21:36.005Z,84.66
2022-10-23T18:24:02.733Z,84.92
2022-10-23T18:26:32.275Z,85.57
2022-10-23T18:28:59.739Z,85.47
2022-10-23T18:31:29.695Z,86.04
2022-10-23T18:34:07.722Z,86.28
2022-10-23T18:36:38.448Z,86.55
2022-10-23T18:39:06.841Z,87.30
2022-10-23T18:41:39.668Z,87.58
2022-10-23T18:44:06.605Z,87.79
2022-10-23T18:46:33.734Z,87.78
2022-10-23T18:49:00.478Z,88.05
2022-10-23T18:51:29.947Z,87.85
2022-10-23T18:53:57.108Z,88.13
2022-10-23T18:56:26.739Z,88.49
2022-10-23T18:58:56.457Z,88.50
2022-10-23T19:01:24.653Z,88.29
2022-10-23T19:03:51.533Z,88.77
2022-10-23T19:06:19.514Z,88.93
2022-10-23T19:08:47.244Z,89.06
2022-10-23T19:11:15.742Z,89.50
2022-10-23T19:13:43.034Z,89.43
2022-10-23T19:16:18.776Z,89.46
2022-10-23T19:19:15.725Z,89.64
2022-10-23T19:21:43.118Z,89.49
2022-10-23T19:24:17.862Z,89.66
2022-10-23T19:26:44.388Z,89.68
2022-10-23T19:29:15.382Z,89.63
2022-10-23T19:31:48.983Z,89.43
2022-10-23T19:34:20.800Z,89.98
2022-10-23T19:36:48.927Z,90.53
2022-10-23T19:39:17.013Z,90.82
2022-10-23T19:41:44.454Z,91.18
2022-10-23T19:44:11.281Z,91.22
2022-10-23T19:46:38.678Z,90.90
2022-10-23T19:49:06.151Z,91.21
2022-10-23T19:51:32.796Z,90.98
2022-10-23T19:54:00.027Z,91.31
2022-10-23T19:56:26.766Z,91.35
2022-10-23T19:58:53.590Z,90.44
2022-10-23T20:01:22.911Z,89.43
2022-10-23T20:03:50.000Z,90.14
2022-10-23T20:06:26.777Z,90.62
2022-10-23T20:08:54.286Z,90.63
2022-10-23T20:11:30.896Z,90.95
2022-10-23T20:13:58.123Z,90.75
2022-10-23T20:16:28.056Z,90.13
2022-10-23T20:18:55.369Z,90.07
2022-10-23T20:21:22.522Z,89.80
2022-10-23T20:23:49.522Z,89.38
2022-10-23T20:26:18.579Z,89.43
2022-10-23T20:28:47.190Z,89.93
2022-10-23T20:31:15.827Z,89.97
2022-10-23T20:33:42.997Z,89.85
2022-10-23T20:36:20.616Z,90.55
2022-10-23T20:38:47.214Z,90.89
2022-10-23T20:41:13.973Z,90.95
2022-10-23T20:43:40.517Z,91.11
2022-10-23T20:46:09.424Z,91.25
2022-10-23T20:48:37.170Z,91.15
2022-10-23T20:51:09.424Z,91.06
2022-10-23T20:53:37.175Z,91.15
2022-10-23T20:56:13.454Z,91.38
2022-10-23T20:58:40.196Z,91.74
2022-10-23T21:01:09.504Z,91.50
2022-10-23T21:03:36.941Z,91.27
2022-10-23T21:06:06.253Z,91.63
2022-10-23T21:08:33.133Z,91.59
2022-10-23T21:11:00.405Z,91.80
2022-10-23T21:13:28.420Z,91.87
2022-10-23T21:15:55.218Z,92.27
2022-10-23T21:18:34.098Z,91.88
2022-10-23T21:21:11.772Z,92.20
2022-10-23T21:23:38.709Z,92.57
2022-10-23T21:26:07.500Z,93.08
2022-10-23T21:28:34.937Z,92.99
2022-10-23T21:31:12.985Z,93.12
2022-10-23T21:33:41.402Z,93.00
2022-10-23T21:36:13.971Z,93.19
2022-10-23T21:38:40.808Z,92.31
2022-10-23T21:41:09.378Z,92.13
2022-10-23T21:43:36.113Z,91.28
2022-10-23T21:46:07.129Z,90.31
2022-10-23T21:48:33.734Z,90.18
2022-10-23T21:51:01.079Z,89.85
2022-10-23T21:53:28.130Z,90.20
2022-10-23T21:56:01.077Z,90.11
2022-10-23T21:58:27.744Z,89.96
2022-10-23T22:00:54.324Z,90.26
2022-10-23T22:03:20.847Z,90.03
2022-10-23T22:05:47.406Z,90.18
2022-10-23T22:08:13.976Z,92.15
2022-10-23T22:10:40.513Z,91.95
2022-10-23T22:13:07.087Z,91.57
2022-10-23T22:15:33.628Z,92.22
2022-10-23T22:18:00.515Z,92.22
2022-10-23T22:20:27.117Z,91.79
2022-10-23T22:22:53.613Z,91.75
2022-10-23T22:25:20.167Z,91.68
2022-10-23T22:27:47.043Z,92.20
2022-10-23T22:30:13.640Z,92.55
2022-10-23T22:32:40.192Z,92.64
2022-10-23T22:35:07.252Z,93.02
2022-10-23T22:37:34.082Z,94.47
2022-10-23T22:40:01.766Z,93.73
2022-10-23T22:42:28.328Z,93.90
2022-10-23T22:44:54.813Z,93.63
2022-10-23T22:47:21.384Z,93.69
2022-10-23T22:49:47.895Z,94.30
2022-10-23T22:52:14.452Z,94.18
2022-10-23T22:54:40.954Z,94.94
2022-10-23T22:57:07.575Z,95.06
2022-10-23T22:59:34.064Z,95.23
2022-10-23T23:02:00.784Z,95.19
2022-10-23T23:04:43.328Z,94.68
2022-10-23T23:07:12.650Z,94.80
2022-10-23T23:09:41.121Z,94.27
2022-10-23T23:12:09.526Z,94.00
2022-10-23T23:14:36.411Z,93.86
2022-10-23T23:17:03.260Z,93.91
2022-10-23T23:19:29.855Z,93.17
2022-10-23T23:22:00.203Z,93.14
2022-10-23T23:24:27.093Z,93.20
2022-10-23T23:26:53.664Z,93.10
2022-10-23T23:29:20.243Z,92.76
2022-10-23T23:31:46.768Z,92.97
2022-10-23T23:34:13.497Z,92.82
2022-10-23T23:36:41.020Z,92.86
2022-10-23T23:39:07.567Z,93.02
2022-10-23T23:41:34.198Z,93.29
2022-10-23T23:44:00.689Z,93.18
2022-10-23T23:46:27.267Z,93.20
2022-10-23T23:48:53.897Z,93.50
2022-10-23T23:51:24.955Z,93.39
2022-10-23T23:53:52.628Z,93.44
2022-10-23T23:56:19.871Z,93.52
2022-10-23T23:58:46.502Z,93.61
